sensor_id;sensor_type;location;lat;lon;timestamp;P1;durP1;ratioP1;P2;durP2;ratioP2
21941;SDS011;11135;54.192;15.670;2023-04-05T00:01:18;4.60;;;1.67;;
21941;SDS011;11135;54.192;15.670;2023-04-05T00:04:27;6.15;;;1.70;;
21941;SDS011;11135;54.192;15.670;2023-04-05T00:07:35;5.45;;;1.40;;
21941;SDS011;11135;54.192;15.670;2023-04-05T00:10:45;4.63;;;1.70;;
21941;SDS011;11135;54.192;15.670;2023-04-05T00:13:54;4.85;;;1.70;;
21941;SDS011;11135;54.192;15.670;2023-04-05T00:17:01;5.80;;;1.40;;
21941;SDS011;11135;54.192;15.670;2023-04-05T00:20:11;5.50;;;1.30;;
21941;SDS011;11135;54.192;15.670;2023-04-05T00:23:19;5.47;;;1.33;;
21941;SDS011;11135;54.192;15.670;2023-04-05T00:26:33;3.00;;;1.27;;
21941;SDS011;11135;54.192;15.670;2023-04-05T00:29:39;5.47;;;1.23;;
21941;SDS011;11135;54.192;15.670;2023-04-05T00:32:46;5.30;;;1.30;;
21941;SDS011;11135;54.192;15.670;2023-04-05T00:35:54;3.92;;;1.35;;
21941;SDS011;11135;54.192;15.670;2023-04-05T00:39:00;4.47;;;1.70;;
21941;SDS011;11135;54.192;15.670;2023-04-05T00:42:10;4.25;;;1.42;;
21941;SDS011;11135;54.192;15.670;2023-04-05T00:45:19;4.65;;;1.73;;
21941;SDS011;11135;54.192;15.670;2023-04-05T00:48:25;7.55;;;2.03;;
21941;SDS011;11135;54.192;15.670;2023-04-05T00:51:31;3.88;;;1.30;;
21941;SDS011;11135;54.192;15.670;2023-04-05T00:54:39;5.30;;;1.52;;
21941;SDS011;11135;54.192;15.670;2023-04-05T00:57:47;7.55;;;1.92;;
21941;SDS011;11135;54.192;15.670;2023-04-05T01:00:57;4.07;;;1.30;;
21941;SDS011;11135;54.192;15.670;2023-04-05T01:04:03;8.18;;;2.03;;
21941;SDS011;11135;54.192;15.670;2023-04-05T01:07:11;5.13;;;1.58;;
21941;SDS011;11135;54.192;15.670;2023-04-05T01:10:18;7.22;;;2.00;;
21941;SDS011;11135;54.192;15.670;2023-04-05T01:13:31;5.85;;;1.50;;
21941;SDS011;11135;54.192;15.670;2023-04-05T01:16:36;5.50;;;1.90;;
21941;SDS011;11135;54.192;15.670;2023-04-05T01:19:46;7.65;;;1.90;;
21941;SDS011;11135;54.192;15.670;2023-04-05T01:23:03;5.28;;;1.70;;
21941;SDS011;11135;54.192;15.670;2023-04-05T01:29:47;11.27;;;3.45;;
21941;SDS011;11135;54.192;15.670;2023-04-05T01:32:58;4.63;;;2.28;;
21941;SDS011;11135;54.192;15.670;2023-04-05T01:36:10;5.55;;;1.95;;
21941;SDS011;11135;54.192;15.670;2023-04-05T01:39:22;3.08;;;1.20;;
21941;SDS011;11135;54.192;15.670;2023-04-05T01:42:30;2.95;;;1.33;;
21941;SDS011;11135;54.192;15.670;2023-04-05T01:45:39;6.10;;;1.55;;
21941;SDS011;11135;54.192;15.670;2023-04-05T01:48:45;3.95;;;1.40;;
21941;SDS011;11135;54.192;15.670;2023-04-05T01:51:54;5.00;;;1.40;;
21941;SDS011;11135;54.192;15.670;2023-04-05T01:55:00;4.93;;;1.88;;
21941;SDS011;11135;54.192;15.670;2023-04-05T01:58:07;5.13;;;1.40;;
21941;SDS011;11135;54.192;15.670;2023-04-05T02:01:16;3.03;;;1.42;;
21941;SDS011;11135;54.192;15.670;2023-04-05T02:04:22;5.05;;;1.60;;
21941;SDS011;11135;54.192;15.670;2023-04-05T02:07:28;6.70;;;1.70;;
21941;SDS011;11135;54.192;15.670;2023-04-05T02:10:34;3.40;;;1.50;;
21941;SDS011;11135;54.192;15.670;2023-04-05T02:13:43;6.93;;;1.67;;
21941;SDS011;11135;54.192;15.670;2023-04-05T02:16:54;4.20;;;1.33;;
21941;SDS011;11135;54.192;15.670;2023-04-05T02:20:05;3.38;;;1.25;;
21941;SDS011;11135;54.192;15.670;2023-04-05T02:23:14;3.72;;;1.40;;
21941;SDS011;11135;54.192;15.670;2023-04-05T02:26:23;3.17;;;1.42;;
21941;SDS011;11135;54.192;15.670;2023-04-05T02:29:31;2.92;;;1.17;;
21941;SDS011;11135;54.192;15.670;2023-04-05T02:32:43;3.50;;;1.55;;
21941;SDS011;11135;54.192;15.670;2023-04-05T02:35:49;3.67;;;1.02;;
21941;SDS011;11135;54.192;15.670;2023-04-05T02:38:57;3.47;;;1.40;;
21941;SDS011;11135;54.192;15.670;2023-04-05T02:42:03;2.35;;;1.13;;
21941;SDS011;11135;54.192;15.670;2023-04-05T02:45:10;3.22;;;1.60;;
21941;SDS011;11135;54.192;15.670;2023-04-05T02:48:19;7.88;;;1.88;;
21941;SDS011;11135;54.192;15.670;2023-04-05T02:51:27;3.60;;;1.48;;
21941;SDS011;11135;54.192;15.670;2023-04-05T02:54:39;5.35;;;1.40;;
21941;SDS011;11135;54.192;15.670;2023-04-05T02:57:44;5.05;;;1.52;;
21941;SDS011;11135;54.192;15.670;2023-04-05T03:00:55;6.18;;;1.40;;
21941;SDS011;11135;54.192;15.670;2023-04-05T03:04:07;6.35;;;1.45;;
21941;SDS011;11135;54.192;15.670;2023-04-05T03:07:18;3.42;;;1.35;;
21941;SDS011;11135;54.192;15.670;2023-04-05T03:10:26;2.28;;;1.10;;
21941;SDS011;11135;54.192;15.670;2023-04-05T03:13:42;3.58;;;1.33;;
21941;SDS011;11135;54.192;15.670;2023-04-05T03:16:49;3.40;;;1.08;;
21941;SDS011;11135;54.192;15.670;2023-04-05T03:19:59;3.45;;;1.13;;
21941;SDS011;11135;54.192;15.670;2023-04-05T03:23:08;4.32;;;2.53;;
21941;SDS011;11135;54.192;15.670;2023-04-05T03:26:16;3.30;;;2.08;;
21941;SDS011;11135;54.192;15.670;2023-04-05T03:29:22;5.28;;;2.17;;
21941;SDS011;11135;54.192;15.670;2023-04-05T03:32:31;4.32;;;1.70;;
21941;SDS011;11135;54.192;15.670;2023-04-05T03:35:40;4.45;;;1.50;;
21941;SDS011;11135;54.192;15.670;2023-04-05T03:38:45;4.78;;;1.63;;
21941;SDS011;11135;54.192;15.670;2023-04-05T03:41:53;5.55;;;1.50;;
21941;SDS011;11135;54.192;15.670;2023-04-05T03:44:59;2.28;;;1.02;;
21941;SDS011;11135;54.192;15.670;2023-04-05T03:48:08;5.45;;;1.60;;
21941;SDS011;11135;54.192;15.670;2023-04-05T03:51:17;4.10;;;1.15;;
21941;SDS011;11135;54.192;15.670;2023-04-05T03:54:23;4.03;;;1.20;;
21941;SDS011;11135;54.192;15.670;2023-04-05T03:57:30;5.75;;;3.35;;
21941;SDS011;11135;54.192;15.670;2023-04-05T04:00:36;5.88;;;1.45;;
21941;SDS011;11135;54.192;15.670;2023-04-05T04:03:42;4.07;;;1.35;;
21941;SDS011;11135;54.192;15.670;2023-04-05T04:06:53;2.55;;;1.10;;
21941;SDS011;11135;54.192;15.670;2023-04-05T04:09:59;2.15;;;1.00;;
21941;SDS011;11135;54.192;15.670;2023-04-05T04:13:06;4.82;;;1.27;;
21941;SDS011;11135;54.192;15.670;2023-04-05T04:16:14;6.43;;;1.35;;
21941;SDS011;11135;54.192;15.670;2023-04-05T04:19:20;4.32;;;1.50;;
21941;SDS011;11135;54.192;15.670;2023-04-05T04:22:29;2.85;;;1.00;;
21941;SDS011;11135;54.192;15.670;2023-04-05T04:25:40;2.38;;;1.08;;
21941;SDS011;11135;54.192;15.670;2023-04-05T04:28:47;2.22;;;1.17;;
21941;SDS011;11135;54.192;15.670;2023-04-05T04:31:56;4.68;;;1.50;;
21941;SDS011;11135;54.192;15.670;2023-04-05T04:35:04;4.70;;;1.80;;
21941;SDS011;11135;54.192;15.670;2023-04-05T04:38:13;3.13;;;1.20;;
21941;SDS011;11135;54.192;15.670;2023-04-05T04:41:22;2.35;;;0.95;;
21941;SDS011;11135;54.192;15.670;2023-04-05T04:44:27;4.72;;;1.17;;
21941;SDS011;11135;54.192;15.670;2023-04-05T04:47:37;2.97;;;1.05;;
21941;SDS011;11135;54.192;15.670;2023-04-05T04:50:43;6.10;;;1.75;;
21941;SDS011;11135;54.192;15.670;2023-04-05T04:53:52;2.72;;;1.30;;
21941;SDS011;11135;54.192;15.670;2023-04-05T04:56:57;2.40;;;1.30;;
21941;SDS011;11135;54.192;15.670;2023-04-05T05:00:04;2.75;;;1.10;;
21941;SDS011;11135;54.192;15.670;2023-04-05T05:03:14;4.90;;;2.20;;
21941;SDS011;11135;54.192;15.670;2023-04-05T05:06:20;4.70;;;1.40;;
21941;SDS011;11135;54.192;15.670;2023-04-05T05:09:31;4.13;;;1.60;;
21941;SDS011;11135;54.192;15.670;2023-04-05T05:12:39;4.82;;;1.63;;
21941;SDS011;11135;54.192;15.670;2023-04-05T05:15:44;7.10;;;1.70;;
21941;SDS011;11135;54.192;15.670;2023-04-05T05:18:51;4.45;;;1.50;;
21941;SDS011;11135;54.192;15.670;2023-04-05T05:21:57;3.70;;;1.42;;
21941;SDS011;11135;54.192;15.670;2023-04-05T05:25:12;4.65;;;1.95;;
21941;SDS011;11135;54.192;15.670;2023-04-05T05:28:17;2.88;;;1.60;;
21941;SDS011;11135;54.192;15.670;2023-04-05T05:31:23;3.78;;;1.70;;
21941;SDS011;11135;54.192;15.670;2023-04-05T05:34:30;5.50;;;2.08;;
21941;SDS011;11135;54.192;15.670;2023-04-05T05:37:37;5.32;;;2.70;;
21941;SDS011;11135;54.192;15.670;2023-04-05T05:40:53;5.47;;;2.15;;
21941;SDS011;11135;54.192;15.670;2023-04-05T05:44:01;3.83;;;1.63;;
21941;SDS011;11135;54.192;15.670;2023-04-05T05:47:09;5.35;;;1.90;;
21941;SDS011;11135;54.192;15.670;2023-04-05T05:50:17;5.57;;;1.67;;
21941;SDS011;11135;54.192;15.670;2023-04-05T05:53:23;4.47;;;1.90;;
21941;SDS011;11135;54.192;15.670;2023-04-05T05:56:36;5.18;;;2.42;;
21941;SDS011;11135;54.192;15.670;2023-04-05T06:02:56;7.70;;;2.58;;
21941;SDS011;11135;54.192;15.670;2023-04-05T06:06:03;7.97;;;2.50;;
21941;SDS011;11135;54.192;15.670;2023-04-05T06:09:13;5.97;;;2.33;;
21941;SDS011;11135;54.192;15.670;2023-04-05T06:12:24;5.85;;;2.10;;
21941;SDS011;11135;54.192;15.670;2023-04-05T06:15:32;4.75;;;2.30;;
21941;SDS011;11135;54.192;15.670;2023-04-05T06:18:37;7.60;;;2.33;;
21941;SDS011;11135;54.192;15.670;2023-04-05T06:21:43;8.88;;;3.63;;
21941;SDS011;11135;54.192;15.670;2023-04-05T06:24:49;11.38;;;2.58;;
21941;SDS011;11135;54.192;15.670;2023-04-05T06:28:03;5.25;;;2.70;;
21941;SDS011;11135;54.192;15.670;2023-04-05T06:31:10;6.00;;;2.70;;
21941;SDS011;11135;54.192;15.670;2023-04-05T06:34:17;6.32;;;2.40;;
21941;SDS011;11135;54.192;15.670;2023-04-05T06:37:25;7.97;;;2.45;;
21941;SDS011;11135;54.192;15.670;2023-04-05T06:40:31;4.35;;;2.22;;
21941;SDS011;11135;54.192;15.670;2023-04-05T06:43:40;8.70;;;2.47;;
21941;SDS011;11135;54.192;15.670;2023-04-05T06:46:46;6.97;;;2.78;;
21941;SDS011;11135;54.192;15.670;2023-04-05T06:49:55;7.70;;;2.75;;
21941;SDS011;11135;54.192;15.670;2023-04-05T06:53:03;6.15;;;2.25;;
21941;SDS011;11135;54.192;15.670;2023-04-05T06:56:09;5.80;;;2.60;;
21941;SDS011;11135;54.192;15.670;2023-04-05T06:59:19;5.30;;;2.28;;
21941;SDS011;11135;54.192;15.670;2023-04-05T07:02:25;6.90;;;2.65;;
21941;SDS011;11135;54.192;15.670;2023-04-05T07:05:31;5.82;;;2.03;;
21941;SDS011;11135;54.192;15.670;2023-04-05T07:08:37;5.90;;;2.25;;
21941;SDS011;11135;54.192;15.670;2023-04-05T07:11:47;4.53;;;2.10;;
21941;SDS011;11135;54.192;15.670;2023-04-05T07:14:56;4.20;;;1.83;;
21941;SDS011;11135;54.192;15.670;2023-04-05T07:18:03;3.97;;;1.88;;
21941;SDS011;11135;54.192;15.670;2023-04-05T07:21:09;4.45;;;1.77;;
21941;SDS011;11135;54.192;15.670;2023-04-05T07:24:15;4.50;;;1.98;;
21941;SDS011;11135;54.192;15.670;2023-04-05T07:27:32;3.38;;;1.80;;
21941;SDS011;11135;54.192;15.670;2023-04-05T07:30:41;6.40;;;1.50;;
21941;SDS011;11135;54.192;15.670;2023-04-05T07:33:48;9.40;;;2.20;;
21941;SDS011;11135;54.192;15.670;2023-04-05T07:36:54;3.35;;;1.48;;
21941;SDS011;11135;54.192;15.670;2023-04-05T07:40:03;5.38;;;1.60;;
21941;SDS011;11135;54.192;15.670;2023-04-05T07:43:12;3.33;;;1.20;;
21941;SDS011;11135;54.192;15.670;2023-04-05T07:46:23;4.40;;;1.10;;
21941;SDS011;11135;54.192;15.670;2023-04-05T07:49:29;2.15;;;1.02;;
21941;SDS011;11135;54.192;15.670;2023-04-05T07:52:39;3.10;;;1.05;;
21941;SDS011;11135;54.192;15.670;2023-04-05T07:55:48;2.92;;;0.75;;
21941;SDS011;11135;54.192;15.670;2023-04-05T07:58:57;3.42;;;0.80;;
21941;SDS011;11135;54.192;15.670;2023-04-05T08:02:06;2.35;;;0.75;;
21941;SDS011;11135;54.192;15.670;2023-04-05T08:05:18;1.30;;;0.80;;
21941;SDS011;11135;54.192;15.670;2023-04-05T08:08:23;2.88;;;1.58;;
21941;SDS011;11135;54.192;15.670;2023-04-05T08:11:30;2.53;;;1.10;;
21941;SDS011;11135;54.192;15.670;2023-04-05T08:14:36;3.38;;;1.13;;
21941;SDS011;11135;54.192;15.670;2023-04-05T08:17:45;4.13;;;1.10;;
21941;SDS011;11135;54.192;15.670;2023-04-05T08:20:52;3.88;;;0.80;;
21941;SDS011;11135;54.192;15.670;2023-04-05T08:23:58;3.92;;;1.08;;
21941;SDS011;11135;54.192;15.670;2023-04-05T08:27:07;2.28;;;0.80;;
21941;SDS011;11135;54.192;15.670;2023-04-05T08:30:12;1.92;;;0.90;;
21941;SDS011;11135;54.192;15.670;2023-04-05T08:33:24;2.78;;;1.00;;
21941;SDS011;11135;54.192;15.670;2023-04-05T08:36:32;2.17;;;0.75;;
21941;SDS011;11135;54.192;15.670;2023-04-05T08:39:38;3.75;;;1.13;;
21941;SDS011;11135;54.192;15.670;2023-04-05T08:42:50;1.75;;;0.80;;
21941;SDS011;11135;54.192;15.670;2023-04-05T08:45:57;1.88;;;0.80;;
21941;SDS011;11135;54.192;15.670;2023-04-05T08:49:12;3.38;;;0.80;;
21941;SDS011;11135;54.192;15.670;2023-04-05T08:52:19;3.08;;;1.17;;
21941;SDS011;11135;54.192;15.670;2023-04-05T08:55:24;2.20;;;0.98;;
21941;SDS011;11135;54.192;15.670;2023-04-05T08:58:31;1.52;;;0.80;;
21941;SDS011;11135;54.192;15.670;2023-04-05T09:01:40;3.45;;;0.95;;
21941;SDS011;11135;54.192;15.670;2023-04-05T09:04:55;3.28;;;0.82;;
21941;SDS011;11135;54.192;15.670;2023-04-05T09:08:01;2.20;;;0.75;;
21941;SDS011;11135;54.192;15.670;2023-04-05T09:11:07;1.75;;;0.80;;
21941;SDS011;11135;54.192;15.670;2023-04-05T09:14:13;1.77;;;0.70;;
21941;SDS011;11135;54.192;15.670;2023-04-05T09:17:22;1.45;;;0.70;;
21941;SDS011;11135;54.192;15.670;2023-04-05T09:20:34;2.22;;;1.00;;
21941;SDS011;11135;54.192;15.670;2023-04-05T09:23:49;1.60;;;0.75;;
21941;SDS011;11135;54.192;15.670;2023-04-05T09:27:02;2.38;;;0.82;;
21941;SDS011;11135;54.192;15.670;2023-04-05T09:30:15;1.65;;;0.75;;
21941;SDS011;11135;54.192;15.670;2023-04-05T09:33:25;3.15;;;1.40;;
21941;SDS011;11135;54.192;15.670;2023-04-05T09:36:35;2.05;;;0.90;;
21941;SDS011;11135;54.192;15.670;2023-04-05T09:40:01;1.67;;;0.95;;
21941;SDS011;11135;54.192;15.670;2023-04-05T09:43:10;1.38;;;0.65;;
21941;SDS011;11135;54.192;15.670;2023-04-05T09:46:30;3.03;;;0.98;;
21941;SDS011;11135;54.192;15.670;2023-04-05T09:49:36;3.35;;;0.90;;
21941;SDS011;11135;54.192;15.670;2023-04-05T09:52:45;7.03;;;1.42;;
21941;SDS011;11135;54.192;15.670;2023-04-05T09:55:51;2.42;;;0.77;;
21941;SDS011;11135;54.192;15.670;2023-04-05T09:59:00;1.83;;;0.80;;
21941;SDS011;11135;54.192;15.670;2023-04-05T10:02:06;2.53;;;0.80;;
21941;SDS011;11135;54.192;15.670;2023-04-05T10:05:12;1.25;;;0.63;;
21941;SDS011;11135;54.192;15.670;2023-04-05T10:08:21;2.13;;;0.80;;
21941;SDS011;11135;54.192;15.670;2023-04-05T10:11:27;3.90;;;0.80;;
21941;SDS011;11135;54.192;15.670;2023-04-05T10:14:33;1.35;;;0.75;;
21941;SDS011;11135;54.192;15.670;2023-04-05T10:17:46;1.85;;;0.80;;
21941;SDS011;11135;54.192;15.670;2023-04-05T10:20:52;0.93;;;0.65;;
21941;SDS011;11135;54.192;15.670;2023-04-05T10:24:04;1.75;;;0.70;;
21941;SDS011;11135;54.192;15.670;2023-04-05T10:27:13;3.22;;;0.68;;
21941;SDS011;11135;54.192;15.670;2023-04-05T10:30:22;3.35;;;1.20;;
21941;SDS011;11135;54.192;15.670;2023-04-05T10:33:32;0.77;;;0.73;;
21941;SDS011;11135;54.192;15.670;2023-04-05T10:36:44;2.03;;;1.00;;
21941;SDS011;11135;54.192;15.670;2023-04-05T10:39:53;1.95;;;0.90;;
21941;SDS011;11135;54.192;15.670;2023-04-05T10:42:59;1.25;;;0.70;;
21941;SDS011;11135;54.192;15.670;2023-04-05T10:46:06;1.77;;;0.80;;
21941;SDS011;11135;54.192;15.670;2023-04-05T10:49:17;4.10;;;0.80;;
21941;SDS011;11135;54.192;15.670;2023-04-05T10:52:25;4.10;;;1.02;;
21941;SDS011;11135;54.192;15.670;2023-04-05T10:55:33;2.88;;;0.70;;
21941;SDS011;11135;54.192;15.670;2023-04-05T10:58:41;2.13;;;0.80;;
21941;SDS011;11135;54.192;15.670;2023-04-05T11:01:48;2.88;;;0.80;;
21941;SDS011;11135;54.192;15.670;2023-04-05T11:04:56;2.22;;;0.90;;
21941;SDS011;11135;54.192;15.670;2023-04-05T11:08:03;2.42;;;0.60;;
21941;SDS011;11135;54.192;15.670;2023-04-05T11:11:12;3.53;;;0.90;;
21941;SDS011;11135;54.192;15.670;2023-04-05T11:14:20;2.25;;;0.88;;
21941;SDS011;11135;54.192;15.670;2023-04-05T11:17:29;1.88;;;0.73;;
21941;SDS011;11135;54.192;15.670;2023-04-05T11:20:41;1.75;;;0.70;;
21941;SDS011;11135;54.192;15.670;2023-04-05T11:24:00;1.50;;;0.70;;
21941;SDS011;11135;54.192;15.670;2023-04-05T11:27:11;1.73;;;0.80;;
21941;SDS011;11135;54.192;15.670;2023-04-05T11:30:22;1.42;;;0.80;;
21941;SDS011;11135;54.192;15.670;2023-04-05T11:33:53;1.30;;;0.75;;
21941;SDS011;11135;54.192;15.670;2023-04-05T11:37:01;3.38;;;0.85;;
21941;SDS011;11135;54.192;15.670;2023-04-05T11:43:32;2.42;;;1.10;;
21941;SDS011;11135;54.192;15.670;2023-04-05T11:46:39;4.03;;;1.15;;
21941;SDS011;11135;54.192;15.670;2023-04-05T11:49:48;2.38;;;1.00;;
21941;SDS011;11135;54.192;15.670;2023-04-05T11:53:06;4.03;;;1.00;;
21941;SDS011;11135;54.192;15.670;2023-04-05T11:56:13;1.67;;;0.75;;
21941;SDS011;11135;54.192;15.670;2023-04-05T11:59:33;3.97;;;1.00;;
21941;SDS011;11135;54.192;15.670;2023-04-05T12:02:41;2.75;;;0.80;;
21941;SDS011;11135;54.192;15.670;2023-04-05T12:05:49;1.98;;;0.90;;
21941;SDS011;11135;54.192;15.670;2023-04-05T12:08:57;1.98;;;1.00;;
21941;SDS011;11135;54.192;15.670;2023-04-05T12:12:08;2.78;;;0.82;;
21941;SDS011;11135;54.192;15.670;2023-04-05T12:15:23;4.13;;;1.00;;
21941;SDS011;11135;54.192;15.670;2023-04-05T12:18:29;3.88;;;1.05;;
21941;SDS011;11135;54.192;15.670;2023-04-05T12:21:35;1.80;;;0.90;;
21941;SDS011;11135;54.192;15.670;2023-04-05T12:24:59;2.38;;;1.13;;
21941;SDS011;11135;54.192;15.670;2023-04-05T12:28:20;2.13;;;0.95;;
21941;SDS011;11135;54.192;15.670;2023-04-05T12:35:00;1.63;;;0.70;;
21941;SDS011;11135;54.192;15.670;2023-04-05T12:38:24;2.53;;;0.80;;
21941;SDS011;11135;54.192;15.670;2023-04-05T12:41:54;2.35;;;0.90;;
21941;SDS011;11135;54.192;15.670;2023-04-05T12:45:14;2.55;;;0.93;;
21941;SDS011;11135;54.192;15.670;2023-04-05T12:48:20;2.05;;;0.88;;
21941;SDS011;11135;54.192;15.670;2023-04-05T12:51:59;0.90;;;0.80;;
21941;SDS011;11135;54.192;15.670;2023-04-05T12:55:13;4.03;;;1.80;;
21941;SDS011;11135;54.192;15.670;2023-04-05T12:58:34;2.15;;;1.00;;
21941;SDS011;11135;54.192;15.670;2023-04-05T13:01:42;3.33;;;1.20;;
21941;SDS011;11135;54.192;15.670;2023-04-05T13:04:51;4.13;;;1.40;;
21941;SDS011;11135;54.192;15.670;2023-04-05T13:08:08;2.60;;;0.90;;
21941;SDS011;11135;54.192;15.670;2023-04-05T13:11:22;2.35;;;1.00;;
21941;SDS011;11135;54.192;15.670;2023-04-05T13:14:32;3.40;;;1.00;;
21941;SDS011;11135;54.192;15.670;2023-04-05T13:17:40;3.20;;;1.00;;
21941;SDS011;11135;54.192;15.670;2023-04-05T13:20:51;1.67;;;0.77;;
21941;SDS011;11135;54.192;15.670;2023-04-05T13:24:03;2.78;;;0.90;;
21941;SDS011;11135;54.192;15.670;2023-04-05T13:27:16;3.65;;;0.90;;
21941;SDS011;11135;54.192;15.670;2023-04-05T13:30:27;3.08;;;1.00;;
21941;SDS011;11135;54.192;15.670;2023-04-05T13:33:32;3.63;;;1.40;;
21941;SDS011;11135;54.192;15.670;2023-04-05T13:36:46;3.33;;;1.25;;
21941;SDS011;11135;54.192;15.670;2023-04-05T13:40:00;1.92;;;0.82;;
21941;SDS011;11135;54.192;15.670;2023-04-05T13:43:11;2.70;;;0.90;;
21941;SDS011;11135;54.192;15.670;2023-04-05T13:46:17;2.67;;;0.90;;
21941;SDS011;11135;54.192;15.670;2023-04-05T13:49:23;3.75;;;1.00;;
21941;SDS011;11135;54.192;15.670;2023-04-05T13:52:30;3.88;;;1.20;;
21941;SDS011;11135;54.192;15.670;2023-04-05T13:55:43;2.45;;;1.02;;
21941;SDS011;11135;54.192;15.670;2023-04-05T13:58:51;4.47;;;1.25;;
21941;SDS011;11135;54.192;15.670;2023-04-05T14:02:04;2.85;;;1.02;;
21941;SDS011;11135;54.192;15.670;2023-04-05T14:05:16;3.15;;;1.00;;
21941;SDS011;11135;54.192;15.670;2023-04-05T14:08:26;2.15;;;0.90;;
21941;SDS011;11135;54.192;15.670;2023-04-05T14:11:36;2.50;;;1.00;;
21941;SDS011;11135;54.192;15.670;2023-04-05T14:14:43;4.38;;;1.20;;
21941;SDS011;11135;54.192;15.670;2023-04-05T14:17:49;1.10;;;0.90;;
21941;SDS011;11135;54.192;15.670;2023-04-05T14:21:00;4.35;;;1.50;;
21941;SDS011;11135;54.192;15.670;2023-04-05T14:24:07;2.65;;;0.93;;
21941;SDS011;11135;54.192;15.670;2023-04-05T14:27:16;3.00;;;1.02;;
21941;SDS011;11135;54.192;15.670;2023-04-05T14:30:27;4.82;;;1.10;;
21941;SDS011;11135;54.192;15.670;2023-04-05T14:33:34;3.05;;;1.30;;
21941;SDS011;11135;54.192;15.670;2023-04-05T14:36:44;1.92;;;0.93;;
21941;SDS011;11135;54.192;15.670;2023-04-05T14:39:52;2.08;;;0.90;;
21941;SDS011;11135;54.192;15.670;2023-04-05T14:43:03;1.98;;;0.80;;
21941;SDS011;11135;54.192;15.670;2023-04-05T14:46:12;3.97;;;1.10;;
21941;SDS011;11135;54.192;15.670;2023-04-05T14:49:27;3.53;;;1.38;;
21941;SDS011;11135;54.192;15.670;2023-04-05T14:52:35;2.25;;;1.10;;
21941;SDS011;11135;54.192;15.670;2023-04-05T14:56:01;4.40;;;1.33;;
21941;SDS011;11135;54.192;15.670;2023-04-05T14:59:11;1.63;;;0.80;;
21941;SDS011;11135;54.192;15.670;2023-04-05T15:02:26;3.35;;;1.33;;
21941;SDS011;11135;54.192;15.670;2023-04-05T15:05:37;4.22;;;1.50;;
21941;SDS011;11135;54.192;15.670;2023-04-05T15:08:47;2.45;;;1.20;;
21941;SDS011;11135;54.192;15.670;2023-04-05T15:11:54;1.95;;;1.00;;
21941;SDS011;11135;54.192;15.670;2023-04-05T15:15:03;1.98;;;1.02;;
21941;SDS011;11135;54.192;15.670;2023-04-05T15:18:10;2.45;;;1.13;;
21941;SDS011;11135;54.192;15.670;2023-04-05T15:21:16;1.17;;;0.95;;
21941;SDS011;11135;54.192;15.670;2023-04-05T15:24:25;2.22;;;1.35;;
21941;SDS011;11135;54.192;15.670;2023-04-05T15:27:31;2.55;;;1.50;;
21941;SDS011;11135;54.192;15.670;2023-04-05T15:30:46;1.85;;;0.90;;
21941;SDS011;11135;54.192;15.670;2023-04-05T15:33:52;2.87;;;0.90;;
21941;SDS011;11135;54.192;15.670;2023-04-05T15:37:02;3.85;;;1.02;;
21941;SDS011;11135;54.192;15.670;2023-04-05T15:40:08;3.33;;;1.20;;
21941;SDS011;11135;54.192;15.670;2023-04-05T15:43:16;4.13;;;1.25;;
21941;SDS011;11135;54.192;15.670;2023-04-05T15:46:25;3.08;;;1.17;;
21941;SDS011;11135;54.192;15.670;2023-04-05T15:49:34;2.97;;;1.00;;
21941;SDS011;11135;54.192;15.670;2023-04-05T15:52:39;2.85;;;0.95;;
21941;SDS011;11135;54.192;15.670;2023-04-05T15:55:48;3.38;;;1.20;;
21941;SDS011;11135;54.192;15.670;2023-04-05T15:58:56;2.78;;;0.88;;
21941;SDS011;11135;54.192;15.670;2023-04-05T16:02:10;3.70;;;1.50;;
21941;SDS011;11135;54.192;15.670;2023-04-05T16:05:27;2.20;;;0.80;;
21941;SDS011;11135;54.192;15.670;2023-04-05T16:08:36;2.13;;;0.82;;
21941;SDS011;11135;54.192;15.670;2023-04-05T16:11:43;3.40;;;0.93;;
21941;SDS011;11135;54.192;15.670;2023-04-05T16:14:51;3.92;;;0.90;;
21941;SDS011;11135;54.192;15.670;2023-04-05T16:18:05;2.40;;;1.00;;
21941;SDS011;11135;54.192;15.670;2023-04-05T16:21:13;1.58;;;0.80;;
21941;SDS011;11135;54.192;15.670;2023-04-05T16:24:20;2.47;;;0.80;;
21941;SDS011;11135;54.192;15.670;2023-04-05T16:27:28;2.92;;;0.90;;
21941;SDS011;11135;54.192;15.670;2023-04-05T16:30:37;4.65;;;1.02;;
21941;SDS011;11135;54.192;15.670;2023-04-05T16:33:48;1.55;;;0.82;;
21941;SDS011;11135;54.192;15.670;2023-04-05T16:36:55;2.88;;;1.08;;
21941;SDS011;11135;54.192;15.670;2023-04-05T16:40:06;1.50;;;0.70;;
21941;SDS011;11135;54.192;15.670;2023-04-05T16:43:13;3.03;;;0.77;;
21941;SDS011;11135;54.192;15.670;2023-04-05T16:49:37;6.00;;;1.30;;
21941;SDS011;11135;54.192;15.670;2023-04-05T16:52:45;2.28;;;0.80;;
21941;SDS011;11135;54.192;15.670;2023-04-05T17:05:52;2.38;;;0.82;;
21941;SDS011;11135;54.192;15.670;2023-04-05T17:08:59;2.08;;;0.90;;
21941;SDS011;11135;54.192;15.670;2023-04-05T17:12:13;4.68;;;1.00;;
21941;SDS011;11135;54.192;15.670;2023-04-05T17:15:19;4.40;;;1.40;;
21941;SDS011;11135;54.192;15.670;2023-04-05T17:18:25;4.13;;;1.70;;
21941;SDS011;11135;54.192;15.670;2023-04-05T17:21:34;5.57;;;1.70;;
21941;SDS011;11135;54.192;15.670;2023-04-05T17:24:41;4.25;;;2.30;;
21941;SDS011;11135;54.192;15.670;2023-04-05T17:27:49;4.72;;;2.92;;
21941;SDS011;11135;54.192;15.670;2023-04-05T17:30:57;5.05;;;2.70;;
21941;SDS011;11135;54.192;15.670;2023-04-05T17:34:43;5.13;;;2.67;;
21941;SDS011;11135;54.192;15.670;2023-04-05T17:37:52;5.60;;;3.03;;
21941;SDS011;11135;54.192;15.670;2023-04-05T17:40:59;4.38;;;2.78;;
21941;SDS011;11135;54.192;15.670;2023-04-05T17:44:54;5.03;;;1.55;;
21941;SDS011;11135;54.192;15.670;2023-04-05T17:48:28;6.82;;;2.35;;
21941;SDS011;11135;54.192;15.670;2023-04-05T17:55:02;25.92;;;8.85;;
21941;SDS011;11135;54.192;15.670;2023-04-05T17:58:08;43.88;;;17.58;;
21941;SDS011;11135;54.192;15.670;2023-04-05T18:01:29;19.27;;;8.27;;
21941;SDS011;11135;54.192;15.670;2023-04-05T18:04:45;16.90;;;7.18;;
21941;SDS011;11135;54.192;15.670;2023-04-05T18:08:08;7.55;;;3.35;;
21941;SDS011;11135;54.192;15.670;2023-04-05T18:15:36;4.60;;;1.42;;
21941;SDS011;11135;54.192;15.670;2023-04-05T18:18:50;5.30;;;1.58;;
21941;SDS011;11135;54.192;15.670;2023-04-05T18:21:56;5.38;;;1.77;;
21941;SDS011;11135;54.192;15.670;2023-04-05T18:25:04;5.90;;;2.00;;
21941;SDS011;11135;54.192;15.670;2023-04-05T18:28:11;7.78;;;2.72;;
21941;SDS011;11135;54.192;15.670;2023-04-05T18:31:30;7.40;;;3.10;;
21941;SDS011;11135;54.192;15.670;2023-04-05T18:34:36;6.40;;;2.97;;
21941;SDS011;11135;54.192;15.670;2023-04-05T18:37:42;5.00;;;2.58;;
21941;SDS011;11135;54.192;15.670;2023-04-05T18:40:57;4.47;;;1.83;;
21941;SDS011;11135;54.192;15.670;2023-04-05T18:44:04;3.95;;;1.70;;
21941;SDS011;11135;54.192;15.670;2023-04-05T18:47:15;3.78;;;1.30;;
21941;SDS011;11135;54.192;15.670;2023-04-05T18:50:22;5.47;;;2.03;;
21941;SDS011;11135;54.192;15.670;2023-04-05T18:53:27;5.80;;;1.77;;
21941;SDS011;11135;54.192;15.670;2023-04-05T18:56:34;3.10;;;1.20;;
21941;SDS011;11135;54.192;15.670;2023-04-05T18:59:40;2.90;;;1.33;;
21941;SDS011;11135;54.192;15.670;2023-04-05T19:02:50;5.20;;;1.58;;
21941;SDS011;11135;54.192;15.670;2023-04-05T19:05:56;2.80;;;1.52;;
21941;SDS011;11135;54.192;15.670;2023-04-05T19:09:05;2.97;;;1.50;;
21941;SDS011;11135;54.192;15.670;2023-04-05T19:12:11;2.80;;;1.27;;
21941;SDS011;11135;54.192;15.670;2023-04-05T19:15:17;4.15;;;1.40;;
21941;SDS011;11135;54.192;15.670;2023-04-05T19:18:30;4.05;;;1.50;;